createdAt,value
2022-12-15T00:02:36.705Z,14.67
2022-12-15T00:05:22.359Z,13.67
2022-12-15T00:08:07.788Z,12.73
2022-12-15T00:10:53.037Z,13.10
2022-12-15T00:13:38.496Z,14.30
2022-12-15T00:16:24.569Z,15.40
2022-12-15T00:19:11.403Z,15.23
2022-12-15T00:21:56.832Z,16.00
2022-12-15T00:24:42.161Z,16.93
2022-12-15T00:27:28.185Z,18.03
2022-12-15T00:30:13.543Z,16.17
2022-12-15T00:32:58.853Z,17.43
2022-12-15T00:35:45.484Z,18.27
2022-12-15T00:38:33.497Z,19.70
2022-12-15T00:41:01.761Z,17.73
2022-12-15T00:43:31.146Z,18.07
2022-12-15T00:46:17.217Z,18.27
2022-12-15T00:48:45.186Z,16.70
2022-12-15T00:51:14.505Z,17.23
2022-12-15T00:54:00.332Z,17.53
2022-12-15T00:56:46.169Z,18.33
2022-12-15T00:59:31.976Z,18.63
2022-12-15T01:02:17.527Z,18.77
2022-12-15T01:05:02.736Z,17.43
2022-12-15T01:07:50.134Z,16.67
2022-12-15T01:10:36.309Z,16.60
2022-12-15T01:13:22.013Z,19.10
2022-12-15T01:16:07.420Z,17.73
2022-12-15T01:18:53.405Z,20.13
2022-12-15T01:21:24.647Z,16.13
2022-12-15T01:23:54.449Z,22.10
2022-12-15T01:26:22.099Z,17.93
2022-12-15T01:28:49.759Z,18.27
2022-12-15T01:31:17.493Z,17.97
2022-12-15T01:33:45.269Z,17.90
2022-12-15T01:36:13.615Z,18.17
2022-12-15T01:38:41.198Z,18.30
2022-12-15T01:41:12.575Z,16.53
2022-12-15T01:43:41.559Z,17.90
2022-12-15T01:46:10.797Z,18.37
2022-12-15T01:48:45.423Z,16.00
2022-12-15T01:51:20.798Z,17.07
2022-12-15T01:53:56.731Z,17.50
2022-12-15T01:56:31.231Z,17.40
2022-12-15T01:59:04.696Z,15.70
2022-12-15T02:01:32.458Z,17.47
2022-12-15T02:04:00.266Z,17.27
2022-12-15T02:06:29.735Z,16.53
2022-12-15T02:08:59.451Z,16.63
2022-12-15T02:11:57.482Z,18.37
2022-12-15T02:14:50.205Z,14.57
2022-12-15T02:17:29.447Z,14.80
2022-12-15T02:20:27.072Z,15.33
2022-12-15T02:23:30.420Z,14.33
2022-12-15T02:26:32.382Z,15.33
2022-12-15T02:29:18.406Z,15.00
2022-12-15T02:31:51.019Z,16.53
2022-12-15T02:34:26.683Z,16.03
2022-12-15T02:37:00.767Z,16.30
2022-12-15T02:39:28.543Z,13.17
2022-12-15T02:41:56.184Z,13.77
2022-12-15T02:44:30.147Z,14.83
2022-12-15T02:47:17.756Z,16.90
2022-12-15T02:49:56.475Z,14.80
2022-12-15T02:52:40.285Z,16.30
2022-12-15T02:55:16.774Z,15.07
2022-12-15T02:57:53.256Z,18.80
2022-12-15T03:00:21.579Z,15.87
2022-12-15T03:02:53.176Z,18.03
2022-12-15T03:05:22.901Z,15.53
2022-12-15T03:07:51.482Z,16.60
2022-12-15T03:10:19.626Z,16.17
2022-12-15T03:12:47.295Z,15.27
2022-12-15T03:15:15.138Z,17.37
2022-12-15T03:17:42.768Z,16.23
2022-12-15T03:20:13.130Z,16.30
2022-12-15T03:22:40.963Z,14.10
2022-12-15T03:25:09.336Z,18.37
2022-12-15T03:27:37.847Z,15.50
2022-12-15T03:30:06.932Z,16.83
2022-12-15T03:32:34.584Z,15.97
2022-12-15T03:35:02.244Z,17.63
2022-12-15T03:37:31.359Z,17.37
2022-12-15T03:39:59.048Z,18.30
2022-12-15T03:42:40.600Z,19.00
2022-12-15T03:45:08.930Z,18.07
2022-12-15T03:47:36.556Z,18.53
2022-12-15T03:50:04.817Z,19.80
2022-12-15T03:52:33.845Z,20.33
2022-12-15T03:55:01.454Z,20.17
2022-12-15T03:57:29.152Z,23.17
2022-12-15T03:59:56.767Z,20.03
2022-12-15T04:02:24.577Z,20.67
2022-12-15T04:04:52.446Z,19.10
2022-12-15T04:07:20.374Z,21.13
2022-12-15T04:09:49.366Z,19.87
2022-12-15T04:12:17.017Z,20.10
2022-12-15T04:14:44.653Z,20.70
2022-12-15T04:17:12.933Z,19.87
2022-12-15T04:19:58.121Z,21.27
2022-12-15T04:22:25.738Z,19.93
2022-12-15T04:25:12.292Z,19.77
2022-12-15T04:28:01.528Z,20.63
2022-12-15T04:30:48.459Z,21.63
2022-12-15T04:33:34.265Z,23.13
2022-12-15T04:36:19.948Z,22.57
2022-12-15T04:39:05.225Z,20.77
2022-12-15T04:41:51.786Z,21.00
2022-12-15T04:44:36.998Z,20.77
2022-12-15T04:47:22.334Z,22.47
2022-12-15T04:50:07.604Z,22.23
2022-12-15T04:52:52.896Z,20.97
2022-12-15T04:55:38.180Z,21.27
2022-12-15T04:58:26.270Z,20.63
2022-12-15T05:01:12.521Z,21.77
2022-12-15T05:03:58.057Z,24.50
2022-12-15T05:06:43.300Z,23.13
2022-12-15T05:09:28.687Z,21.83
2022-12-15T05:12:14.041Z,22.63
2022-12-15T05:15:00.551Z,22.27
2022-12-15T05:17:46.081Z,25.53
2022-12-15T05:20:31.496Z,22.80
2022-12-15T05:23:16.833Z,23.03
2022-12-15T05:26:02.647Z,23.63
2022-12-15T05:28:47.858Z,23.50
2022-12-15T05:31:34.389Z,21.13
2022-12-15T05:34:05.498Z,24.67
2022-12-15T05:36:33.656Z,21.40
2022-12-15T05:39:01.270Z,22.53
2022-12-15T05:41:28.882Z,22.03
2022-12-15T05:43:56.540Z,22.73
2022-12-15T05:46:25.915Z,20.60
2022-12-15T05:48:53.572Z,19.97
2022-12-15T05:51:21.282Z,19.90
2022-12-15T05:53:48.974Z,23.20
2022-12-15T05:56:16.948Z,20.63
2022-12-15T05:58:45.662Z,21.00
2022-12-15T06:01:15.623Z,22.00
2022-12-15T06:03:44.723Z,21.47
2022-12-15T06:06:13.813Z,24.00
2022-12-15T06:08:43.180Z,22.50
2022-12-15T06:11:12.666Z,20.03
2022-12-15T06:13:40.831Z,22.10
2022-12-15T06:16:11.943Z,19.93
2022-12-15T06:18:42.597Z,21.67
2022-12-15T06:21:13.704Z,22.33
2022-12-15T06:23:42.310Z,24.37
2022-12-15T06:26:12.203Z,22.67
2022-12-15T06:28:40.163Z,21.67
2022-12-15T06:31:09.810Z,21.60
2022-12-15T06:33:38.156Z,21.10
2022-12-15T06:36:08.446Z,20.53
2022-12-15T06:38:38.012Z,22.47
2022-12-15T06:41:07.926Z,22.70
2022-12-15T06:43:35.647Z,20.90
2022-12-15T06:46:03.885Z,22.00
2022-12-15T06:48:31.982Z,21.40
2022-12-15T06:51:04.707Z,23.13
2022-12-15T06:53:33.066Z,22.90
2022-12-15T06:56:03.670Z,24.60
2022-12-15T06:58:35.308Z,22.10
2022-12-15T07:01:06.608Z,24.27
2022-12-15T07:03:35.467Z,22.80
2022-12-15T07:06:05.185Z,24.57
2022-12-15T07:08:40.948Z,22.40
2022-12-15T07:11:13.677Z,22.73
2022-12-15T07:13:41.603Z,22.23
2022-12-15T07:16:12.345Z,24.00
2022-12-15T07:18:40.716Z,23.73
2022-12-15T07:21:10.552Z,23.63
2022-12-15T07:23:56.255Z,23.43
2022-12-15T07:26:26.520Z,24.77
2022-12-15T07:28:54.610Z,22.23
2022-12-15T07:31:23.439Z,22.70
2022-12-15T07:33:53.746Z,24.93
2022-12-15T07:36:21.635Z,25.27
2022-12-15T07:38:50.727Z,25.77
2022-12-15T07:41:21.169Z,23.83
2022-12-15T07:43:50.243Z,25.37
2022-12-15T07:46:18.936Z,24.97
2022-12-15T07:48:50.170Z,26.40
2022-12-15T07:51:20.124Z,26.63
2022-12-15T07:53:49.445Z,27.13
2022-12-15T07:56:17.788Z,25.33
2022-12-15T07:58:45.434Z,23.30
2022-12-15T08:01:15.645Z,25.70
2022-12-15T08:03:43.579Z,27.20
2022-12-15T08:06:12.995Z,24.90
2022-12-15T08:08:42.184Z,23.53
2022-12-15T08:11:12.146Z,25.03
2022-12-15T08:16:31.308Z,24.17
2022-12-15T08:18:59.189Z,25.27
2022-12-15T08:21:26.810Z,30.93
2022-12-15T08:23:54.953Z,26.97
2022-12-15T08:26:29.791Z,24.33
2022-12-15T08:29:11.730Z,38.10
2022-12-15T08:31:46.850Z,24.63
2022-12-15T08:34:14.669Z,22.30
2022-12-15T08:36:42.404Z,25.07
2022-12-15T08:39:10.181Z,27.47
2022-12-15T08:41:37.856Z,24.17
2022-12-15T08:44:05.887Z,24.80
2022-12-15T08:46:36.031Z,23.23
2022-12-15T08:49:05.491Z,27.17
2022-12-15T08:51:34.727Z,26.40
2022-12-15T08:54:02.925Z,29.30
2022-12-15T08:56:31.235Z,24.27
2022-12-15T08:59:07.655Z,23.30
2022-12-15T09:01:41.104Z,27.37
2022-12-15T09:04:10.221Z,26.47
2022-12-15T09:06:43.798Z,24.90
2022-12-15T09:09:14.711Z,24.73
2022-12-15T09:11:43.755Z,27.43
2022-12-15T09:14:13.413Z,26.30
2022-12-15T09:16:41.150Z,25.53
2022-12-15T09:19:55.891Z,25.40
2022-12-15T09:23:09.763Z,25.43
2022-12-15T09:25:38.356Z,27.20
2022-12-15T09:28:06.429Z,26.70
2022-12-15T09:30:37.446Z,25.27
2022-12-15T09:33:05.185Z,28.43
2022-12-15T09:35:34.706Z,29.37
2022-12-15T09:38:02.467Z,26.53
2022-12-15T09:40:43.266Z,26.53
2022-12-15T09:43:33.891Z,29.77
2022-12-15T09:46:08.995Z,27.60
2022-12-15T09:48:45.307Z,29.30
2022-12-15T09:51:19.402Z,28.13
2022-12-15T09:53:56.380Z,27.20
2022-12-15T09:56:31.760Z,24.33
2022-12-15T09:59:06.516Z,28.77
2022-12-15T10:01:42.135Z,29.07
2022-12-15T10:04:20.465Z,27.07
2022-12-15T10:06:55.619Z,28.23
2022-12-15T10:09:27.521Z,29.63
2022-12-15T10:11:59.224Z,30.47
2022-12-15T10:14:32.525Z,24.33
2022-12-15T10:17:07.695Z,28.63
2022-12-15T10:19:41.771Z,30.27
2022-12-15T10:22:15.484Z,27.70
2022-12-15T10:28:06.383Z,25.83
2022-12-15T10:30:37.037Z,27.30
2022-12-15T10:33:19.186Z,29.63
2022-12-15T10:35:47.393Z,27.67
2022-12-15T10:38:26.160Z,29.67
2022-12-15T10:40:56.729Z,25.73
2022-12-15T10:43:34.480Z,26.17
2022-12-15T10:46:12.680Z,30.03
2022-12-15T10:48:41.053Z,32.63
2022-12-15T10:51:21.280Z,31.10
2022-12-15T10:53:53.808Z,32.20
2022-12-15T10:56:32.456Z,30.97
2022-12-15T10:59:03.615Z,29.13
2022-12-15T11:01:33.658Z,30.60
2022-12-15T11:04:01.614Z,32.03
2022-12-15T11:06:33.189Z,28.83
2022-12-15T11:09:24.777Z,29.53
2022-12-15T11:12:12.055Z,31.83
2022-12-15T11:14:47.514Z,28.53
2022-12-15T11:17:17.967Z,31.00
2022-12-15T11:20:02.348Z,30.73
2022-12-15T11:22:43.295Z,31.97
2022-12-15T11:25:24.737Z,31.33
2022-12-15T11:28:00.236Z,28.93
2022-12-15T11:30:35.316Z,30.20
2022-12-15T11:33:04.070Z,29.00
2022-12-15T11:35:44.959Z,28.70
2022-12-15T11:38:21.138Z,31.60
2022-12-15T11:40:55.461Z,30.13
2022-12-15T11:43:37.620Z,33.40
2022-12-15T11:46:21.231Z,31.67
2022-12-15T11:49:05.050Z,29.60
2022-12-15T11:51:42.957Z,32.47
2022-12-15T11:54:19.845Z,34.30
2022-12-15T11:56:53.243Z,31.63
2022-12-15T11:59:46.163Z,32.90
2022-12-15T12:02:30.607Z,28.70
2022-12-15T12:05:16.155Z,32.43
2022-12-15T12:07:49.006Z,34.00
2022-12-15T12:10:31.050Z,31.03
2022-12-15T12:13:10.727Z,32.10
2022-12-15T12:15:51.388Z,34.53
2022-12-15T12:18:22.856Z,31.33
2022-12-15T12:20:54.367Z,32.60
2022-12-15T12:23:28.478Z,32.43
2022-12-15T12:26:03.391Z,34.30
2022-12-15T12:28:46.656Z,34.33
2022-12-15T12:31:29.946Z,32.73
2022-12-15T12:34:04.130Z,32.50
2022-12-15T12:36:31.766Z,34.37
2022-12-15T12:39:00.086Z,36.10
2022-12-15T12:41:37.986Z,32.27
2022-12-15T12:44:13.978Z,30.30
2022-12-15T12:46:45.005Z,33.83
2022-12-15T12:49:26.889Z,33.40
2022-12-15T12:51:56.520Z,33.50
2022-12-15T12:54:42.872Z,33.40
2022-12-15T12:57:37.213Z,33.67
2022-12-15T13:00:23.007Z,32.50
2022-12-15T13:03:14.340Z,35.77
2022-12-15T13:05:43.424Z,32.13
2022-12-15T13:08:45.540Z,33.30
2022-12-15T13:11:56.313Z,36.47
2022-12-15T13:14:31.836Z,32.07
2022-12-15T13:17:25.943Z,31.33
2022-12-15T13:20:22.117Z,31.50
2022-12-15T13:22:50.512Z,29.93
2022-12-15T13:25:36.504Z,32.20
2022-12-15T13:28:19.304Z,29.83
2022-12-15T13:31:20.856Z,31.73
2022-12-15T13:33:56.722Z,30.83
2022-12-15T13:36:54.252Z,31.93
2022-12-15T13:39:51.733Z,33.07
2022-12-15T13:42:52.988Z,31.67
2022-12-15T13:45:34.396Z,28.03
2022-12-15T13:48:02.469Z,30.03
2022-12-15T13:50:39.872Z,31.57
2022-12-15T13:53:30.608Z,31.33
2022-12-15T13:56:13.779Z,31.07
2022-12-15T13:58:45.356Z,30.17
2022-12-15T14:01:23.937Z,31.40
2022-12-15T14:04:08.226Z,30.87
2022-12-15T14:06:45.026Z,30.07
2022-12-15T14:09:15.457Z,32.60
2022-12-15T14:11:53.227Z,32.03
2022-12-15T14:14:25.562Z,31.87
2022-12-15T14:16:57.306Z,29.53
2022-12-15T14:19:26.637Z,34.70
2022-12-15T14:21:57.031Z,29.53
2022-12-15T14:24:38.454Z,32.43
2022-12-15T14:27:07.260Z,34.13
2022-12-15T14:29:34.884Z,30.63
2022-12-15T14:32:03.277Z,29.80
2022-12-15T14:34:36.885Z,29.50
2022-12-15T14:37:11.669Z,30.70
2022-12-15T14:39:43.384Z,29.43
2022-12-15T14:42:17.307Z,29.30
2022-12-15T14:44:49.774Z,30.47
2022-12-15T14:47:21.644Z,33.97
2022-12-15T14:49:49.690Z,30.80
2022-12-15T14:52:29.188Z,29.83
2022-12-15T14:54:58.870Z,31.93
2022-12-15T14:57:28.571Z,29.83
2022-12-15T14:59:56.493Z,30.40
2022-12-15T15:02:28.427Z,31.37
2022-12-15T15:04:59.734Z,30.33
2022-12-15T15:07:29.622Z,31.90
2022-12-15T15:09:57.817Z,33.50
2022-12-15T15:12:42.495Z,27.53
2022-12-15T15:15:16.376Z,30.13
2022-12-15T15:17:50.070Z,28.23
2022-12-15T15:20:22.621Z,30.90
2022-12-15T15:23:14.127Z,31.47
2022-12-15T15:25:42.592Z,27.00
2022-12-15T15:28:21.195Z,29.80
2022-12-15T15:30:50.346Z,29.40
2022-12-15T15:33:19.669Z,28.47
2022-12-15T15:35:53.019Z,30.07
2022-12-15T15:38:27.830Z,30.60
2022-12-15T15:40:57.664Z,29.83
2022-12-15T15:43:27.218Z,28.67
2022-12-15T15:46:02.216Z,30.73
2022-12-15T15:48:33.066Z,31.13
2022-12-15T15:51:01.737Z,33.00
2022-12-15T15:53:34.209Z,29.83
2022-12-15T15:56:03.643Z,30.53
2022-12-15T15:58:31.682Z,30.47
2022-12-15T16:00:59.743Z,31.50
2022-12-15T16:03:27.624Z,28.93
2022-12-15T16:05:57.682Z,31.10
2022-12-15T16:08:30.116Z,30.93
2022-12-15T16:11:02.676Z,30.70
2022-12-15T16:13:32.858Z,31.60
2022-12-15T16:16:00.639Z,29.33
2022-12-15T16:18:32.824Z,35.63
2022-12-15T16:21:01.928Z,32.47
2022-12-15T16:23:31.856Z,31.17
2022-12-15T16:26:01.424Z,33.53
2022-12-15T16:28:31.108Z,33.30
2022-12-15T16:30:59.574Z,31.50
2022-12-15T16:33:27.314Z,32.10
2022-12-15T16:35:55.187Z,36.47
2022-12-15T16:38:26.802Z,34.67
2022-12-15T16:40:59.478Z,34.97
2022-12-15T16:43:34.535Z,32.53
2022-12-15T16:46:04.693Z,29.63
2022-12-15T16:48:33.013Z,33.17
2022-12-15T16:51:00.977Z,34.87
2022-12-15T16:53:31.607Z,33.27
2022-12-15T16:56:01.309Z,29.77
2022-12-15T16:58:32.360Z,35.00
2022-12-15T17:01:00.321Z,31.93
2022-12-15T17:03:29.462Z,32.63
2022-12-15T17:06:00.883Z,32.73
2022-12-15T17:08:34.839Z,30.23
2022-12-15T17:11:02.860Z,32.77
2022-12-15T17:13:45.131Z,31.67
2022-12-15T17:16:14.939Z,35.93
2022-12-15T17:18:44.310Z,29.57
2022-12-15T17:21:16.279Z,34.23
2022-12-15T17:23:46.044Z,31.37
2022-12-15T17:26:27.647Z,34.03
2022-12-15T17:29:00.908Z,33.23
2022-12-15T17:31:34.619Z,33.63
2022-12-15T17:34:03.676Z,33.17
2022-12-15T17:36:31.398Z,33.83
2022-12-15T17:39:01.666Z,35.50
2022-12-15T17:41:57.956Z,32.93
2022-12-15T17:44:38.560Z,34.40
2022-12-15T17:47:10.500Z,37.33
2022-12-15T17:49:39.207Z,36.23
2022-12-15T17:52:15.259Z,36.47
2022-12-15T17:54:42.920Z,41.70
2022-12-15T17:57:12.662Z,36.77
2022-12-15T17:59:41.812Z,42.83
2022-12-15T18:02:12.522Z,37.47
2022-12-15T18:04:40.458Z,39.50
2022-12-15T18:07:15.182Z,34.67
2022-12-15T18:09:42.864Z,38.87
2022-12-15T18:12:18.174Z,39.67
2022-12-15T18:14:47.794Z,41.67
2022-12-15T18:17:15.543Z,41.33
2022-12-15T18:19:43.220Z,40.63
2022-12-15T18:22:14.242Z,38.07
2022-12-15T18:24:42.267Z,43.60
2022-12-15T18:27:20.723Z,42.23
2022-12-15T18:29:49.723Z,42.90
2022-12-15T18:32:18.139Z,43.03
2022-12-15T18:34:46.613Z,37.53
2022-12-15T18:37:17.536Z,40.07
2022-12-15T18:39:46.066Z,41.70
2022-12-15T18:42:16.023Z,41.50
2022-12-15T18:44:49.649Z,42.43
2022-12-15T18:47:18.862Z,44.97
2022-12-15T18:49:47.159Z,41.43
2022-12-15T18:52:18.545Z,46.33
2022-12-15T18:54:47.659Z,47.27
2022-12-15T18:57:27.501Z,42.03
2022-12-15T18:59:58.261Z,41.37
2022-12-15T19:02:26.204Z,43.33
2022-12-15T19:04:56.447Z,46.97
2022-12-15T19:07:24.112Z,43.17
2022-12-15T19:09:51.982Z,45.53
2022-12-15T19:12:19.933Z,40.93
2022-12-15T19:14:48.851Z,42.80
2022-12-15T19:17:37.788Z,44.60
2022-12-15T19:20:24.689Z,43.20
2022-12-15T19:22:53.329Z,42.93
2022-12-15T19:25:25.828Z,48.33
2022-12-15T19:27:58.666Z,47.90
2022-12-15T19:30:28.480Z,47.63
2022-12-15T19:32:57.762Z,46.53
2022-12-15T19:35:25.767Z,39.07
2022-12-15T19:37:55.178Z,44.83
2022-12-15T19:40:24.936Z,45.57
2022-12-15T19:42:53.200Z,43.43
2022-12-15T19:45:25.308Z,43.63
2022-12-15T19:47:53.013Z,43.63
2022-12-15T19:50:24.341Z,43.93
2022-12-15T19:52:55.257Z,41.33
2022-12-15T19:55:26.934Z,42.90
2022-12-15T19:57:54.502Z,44.37
2022-12-15T20:00:24.831Z,45.83
2022-12-15T20:02:54.843Z,41.70
2022-12-15T20:05:25.430Z,42.60
2022-12-15T20:07:54.568Z,49.30
2022-12-15T20:10:31.330Z,42.07
2022-12-15T20:13:00.412Z,43.90
2022-12-15T20:15:28.551Z,45.20
2022-12-15T20:17:57.089Z,38.27
2022-12-15T20:20:28.889Z,46.40
2022-12-15T20:22:58.768Z,40.50
2022-12-15T20:25:28.755Z,41.27
2022-12-15T20:27:56.456Z,42.40
2022-12-15T20:30:26.829Z,36.17
2022-12-15T20:32:54.745Z,35.03
2022-12-15T20:35:25.707Z,39.63
2022-12-15T20:37:54.781Z,35.60
2022-12-15T20:40:24.774Z,35.83
2022-12-15T20:42:54.082Z,37.93
2022-12-15T20:45:24.083Z,33.37
2022-12-15T20:47:54.215Z,37.60
2022-12-15T20:50:33.469Z,35.80
2022-12-15T20:53:03.245Z,35.27
2022-12-15T20:55:31.495Z,35.27
2022-12-15T20:57:59.151Z,34.10
2022-12-15T21:00:26.772Z,28.70
2022-12-15T21:02:55.247Z,33.03
2022-12-15T21:05:25.348Z,31.23
2022-12-15T21:07:53.724Z,27.70
2022-12-15T21:10:22.898Z,24.67
2022-12-15T21:12:51.329Z,26.77
2022-12-15T21:15:21.895Z,26.27
2022-12-15T21:18:11.035Z,22.30
2022-12-15T21:20:41.163Z,22.33
2022-12-15T21:23:19.746Z,28.27
2022-12-15T21:25:49.489Z,24.47
2022-12-15T21:28:18.931Z,23.43
2022-12-15T21:30:47.763Z,21.60
2022-12-15T21:33:16.067Z,20.33
2022-12-15T21:35:47.025Z,23.20
2022-12-15T21:38:33.312Z,24.87
2022-12-15T21:41:06.299Z,21.83
2022-12-15T21:43:39.307Z,22.83
2022-12-15T21:46:14.868Z,21.30
2022-12-15T21:49:00.456Z,18.20
2022-12-15T21:51:30.454Z,20.90
2022-12-15T21:53:58.170Z,21.60
2022-12-15T21:56:27.157Z,19.80
2022-12-15T21:58:55.031Z,16.73
2022-12-15T22:01:24.946Z,16.90
2022-12-15T22:03:54.635Z,17.13
2022-12-15T22:06:24.856Z,18.07
2022-12-15T22:08:53.560Z,16.70
2022-12-15T22:11:24.275Z,17.80
2022-12-15T22:13:55.027Z,17.77
2022-12-15T22:16:23.046Z,17.13
2022-12-15T22:18:53.091Z,17.10
2022-12-15T22:21:22.562Z,18.47
2022-12-15T22:23:50.850Z,17.43
2022-12-15T22:26:22.585Z,17.80
2022-12-15T22:28:51.003Z,16.40
2022-12-15T22:31:20.788Z,16.70
2022-12-15T22:33:48.873Z,16.17
2022-12-15T22:36:16.496Z,17.03
2022-12-15T22:38:45.035Z,18.10
2022-12-15T22:41:19.482Z,16.03
2022-12-15T22:43:50.562Z,16.57
2022-12-15T22:46:21.080Z,18.83
2022-12-15T22:48:49.306Z,16.20
2022-12-15T22:51:19.243Z,16.00
2022-12-15T22:53:47.381Z,18.53
2022-12-15T22:56:24.035Z,15.77
2022-12-15T22:58:56.959Z,17.57
2022-12-15T23:01:27.347Z,16.90
2022-12-15T23:03:55.595Z,15.77
2022-12-15T23:06:24.163Z,16.80
2022-12-15T23:08:55.850Z,15.20
2022-12-15T23:11:38.354Z,17.10
2022-12-15T23:14:07.742Z,14.53
2022-12-15T23:16:36.328Z,14.43
2022-12-15T23:19:05.275Z,15.23
2022-12-15T23:21:33.392Z,15.87
2022-12-15T23:24:01.160Z,17.20
2022-12-15T23:26:29.143Z,13.37
2022-12-15T23:28:56.837Z,16.13
2022-12-15T23:31:24.509Z,14.77
2022-12-15T23:33:54.031Z,17.60
2022-12-15T23:36:21.663Z,17.80
2022-12-15T23:38:49.305Z,15.30
2022-12-15T23:41:18.205Z,16.63
2022-12-15T23:43:45.931Z,16.00
2022-12-15T23:46:13.876Z,17.57
2022-12-15T23:48:44.588Z,17.97
2022-12-15T23:51:15.778Z,16.20
2022-12-15T23:53:44.871Z,18.17
2022-12-15T23:56:14.644Z,15.43
2022-12-15T23:58:44.915Z,16.03
